createdAt,value
2019-01-26T00:01:28.677Z,0.63
2019-01-26T00:03:57.124Z,0.66
2019-01-26T00:06:25.689Z,0.68
2019-01-26T00:08:54.837Z,0.66
2019-01-26T00:11:23.250Z,0.69
2019-01-26T00:13:51.674Z,0.69
2019-01-26T00:16:21.955Z,0.72
2019-01-26T00:18:50.313Z,0.71
2019-01-26T00:21:18.693Z,0.74
2019-01-26T00:23:47.133Z,0.77
2019-01-26T00:26:15.778Z,0.76
2019-01-26T00:28:44.354Z,0.75
2019-01-26T00:31:12.890Z,0.79
2019-01-26T00:33:43.246Z,0.76
2019-01-26T00:36:11.490Z,0.73
2019-01-26T00:38:39.856Z,0.72
2019-01-26T00:41:09.046Z,0.71
2019-01-26T00:43:37.401Z,0.74
2019-01-26T00:46:05.928Z,0.69
2019-01-26T00:48:34.358Z,0.71
2019-01-26T00:51:02.828Z,0.66
2019-01-26T00:53:31.180Z,0.71
2019-01-26T00:55:59.596Z,0.77
2019-01-26T00:58:28.072Z,0.74
2019-01-26T01:00:56.491Z,0.74
2019-01-26T01:03:24.892Z,0.78
2019-01-26T01:05:53.317Z,0.71
2019-01-26T01:08:21.780Z,0.70
2019-01-26T01:10:50.216Z,0.81
2019-01-26T01:13:18.678Z,0.76
2019-01-26T01:15:47.098Z,0.72
2019-01-26T01:18:15.486Z,0.71
2019-01-26T01:20:43.877Z,0.74
2019-01-26T01:23:12.309Z,0.78
2019-01-26T01:25:40.727Z,0.77
2019-01-26T01:28:09.145Z,0.76
2019-01-26T01:30:37.568Z,0.80
2019-01-26T01:33:05.967Z,0.78
2019-01-26T01:35:34.377Z,0.77
2019-01-26T01:38:02.790Z,0.79
2019-01-26T01:40:31.225Z,0.79
2019-01-26T01:42:59.755Z,0.82
2019-01-26T01:45:28.191Z,0.84
2019-01-26T01:47:56.612Z,0.86
2019-01-26T01:50:24.993Z,0.87
2019-01-26T01:52:53.371Z,0.92
2019-01-26T01:55:21.726Z,0.92
2019-01-26T01:57:50.202Z,0.92
2019-01-26T02:00:21.073Z,0.90
2019-01-26T02:02:49.419Z,0.90
2019-01-26T02:05:18.057Z,0.94
2019-01-26T02:07:46.483Z,0.96
2019-01-26T02:10:17.312Z,0.97
2019-01-26T02:12:45.849Z,0.92
2019-01-26T02:15:14.633Z,0.94
2019-01-26T02:17:43.060Z,1.02
2019-01-26T02:20:14.638Z,1.01
2019-01-26T02:22:43.063Z,0.97
2019-01-26T02:25:11.589Z,0.96
2019-01-26T02:27:40.019Z,1.02
2019-01-26T02:30:17.529Z,1.03
2019-01-26T02:32:45.952Z,1.01
2019-01-26T02:35:14.412Z,0.96
2019-01-26T02:37:42.841Z,1.02
2019-01-26T02:40:13.369Z,0.97
2019-01-26T02:42:41.813Z,0.98
2019-01-26T02:45:12.239Z,1.00
2019-01-26T02:47:40.777Z,0.92
2019-01-26T02:50:14.532Z,0.96
2019-01-26T02:52:43.027Z,0.95
2019-01-26T02:55:11.677Z,1.00
2019-01-26T02:57:40.110Z,1.01
2019-01-26T03:00:14.436Z,1.02
2019-01-26T03:02:42.866Z,1.01
2019-01-26T03:05:11.524Z,0.98
2019-01-26T03:07:39.957Z,1.00
2019-01-26T03:10:14.463Z,0.98
2019-01-26T03:12:42.886Z,1.10
2019-01-26T03:15:14.285Z,1.15
2019-01-26T03:17:42.712Z,1.15
2019-01-26T03:20:12.935Z,1.13
2019-01-26T03:22:41.432Z,1.10
2019-01-26T03:25:11.486Z,1.12
2019-01-26T03:27:39.909Z,1.14
2019-01-26T03:30:25.099Z,1.17
2019-01-26T03:32:53.549Z,1.19
2019-01-26T03:35:21.996Z,1.14
2019-01-26T03:37:50.360Z,1.15
2019-01-26T03:40:20.891Z,1.18
2019-01-26T03:42:49.426Z,1.16
2019-01-26T03:45:18.197Z,1.13
2019-01-26T03:47:46.920Z,1.17
2019-01-26T03:50:16.153Z,1.09
2019-01-26T03:52:44.578Z,1.14
2019-01-26T03:55:18.215Z,1.08
2019-01-26T03:57:46.673Z,1.12
2019-01-26T04:03:04.700Z,1.18
2019-01-26T04:05:33.152Z,1.05
2019-01-26T04:08:01.615Z,1.09
2019-01-26T04:10:29.969Z,1.14
2019-01-26T04:12:58.517Z,1.24
2019-01-26T04:15:26.971Z,1.23
2019-01-26T04:17:55.366Z,1.16
2019-01-26T04:20:23.790Z,1.22
2019-01-26T04:22:52.249Z,1.21
2019-01-26T04:25:20.696Z,1.13
2019-01-26T04:27:49.094Z,1.21
2019-01-26T04:30:19.508Z,1.19
2019-01-26T04:32:47.965Z,1.27
2019-01-26T04:35:16.471Z,1.22
2019-01-26T04:37:44.857Z,1.29
2019-01-26T04:40:15.355Z,1.27
2019-01-26T04:42:43.793Z,1.29
2019-01-26T04:45:17.809Z,1.24
2019-01-26T04:47:46.203Z,1.29
2019-01-26T04:50:16.600Z,1.24
2019-01-26T04:52:45.085Z,1.30
2019-01-26T04:55:14.186Z,1.34
2019-01-26T04:57:42.717Z,1.33
2019-01-26T05:00:14.387Z,1.32
2019-01-26T05:02:42.773Z,1.34
2019-01-26T05:05:11.310Z,1.40
2019-01-26T05:07:39.769Z,1.36
2019-01-26T05:10:11.143Z,1.30
2019-01-26T05:12:39.616Z,1.32
2019-01-26T05:15:10.716Z,1.42
2019-01-26T05:17:39.803Z,1.40
2019-01-26T05:20:20.510Z,1.33
2019-01-26T05:22:48.977Z,1.40
2019-01-26T05:25:17.550Z,1.31
2019-01-26T05:27:46.014Z,1.37
2019-01-26T05:30:17.423Z,1.40
2019-01-26T05:32:45.901Z,1.42
2019-01-26T05:35:14.418Z,1.46
2019-01-26T05:37:42.778Z,1.43
2019-01-26T05:40:14.218Z,1.42
2019-01-26T05:42:42.573Z,1.42
2019-01-26T05:45:13.700Z,1.43
2019-01-26T05:47:48.212Z,1.39
2019-01-26T05:50:18.695Z,1.40
2019-01-26T05:52:47.189Z,1.41
2019-01-26T05:55:15.728Z,1.42
2019-01-26T05:57:44.152Z,1.42
2019-01-26T06:00:28.277Z,1.39
2019-01-26T06:02:56.768Z,1.43
2019-01-26T06:05:25.236Z,1.43
2019-01-26T06:07:53.777Z,1.50
2019-01-26T06:10:22.325Z,1.47
2019-01-26T06:12:50.677Z,1.50
2019-01-26T06:15:19.206Z,1.53
2019-01-26T06:17:47.636Z,1.55
2019-01-26T06:20:17.064Z,1.54
2019-01-26T06:22:45.496Z,1.57
2019-01-26T06:25:18.741Z,1.60
2019-01-26T06:27:47.360Z,1.69
2019-01-26T06:30:20.810Z,1.58
2019-01-26T06:32:49.303Z,1.64
2019-01-26T06:35:18.036Z,1.58
2019-01-26T06:37:46.543Z,1.65
2019-01-26T06:40:17.071Z,1.63
2019-01-26T06:42:45.562Z,1.58
2019-01-26T06:45:16.400Z,1.55
2019-01-26T06:47:44.891Z,1.59
2019-01-26T06:50:20.555Z,1.57
2019-01-26T06:52:48.980Z,1.54
2019-01-26T06:55:17.454Z,1.53
2019-01-26T06:57:45.948Z,1.59
2019-01-26T07:00:23.508Z,1.48
2019-01-26T07:02:51.943Z,1.52
2019-01-26T07:05:25.004Z,1.50
2019-01-26T07:07:53.559Z,1.43
2019-01-26T07:10:22.024Z,1.48
2019-01-26T07:12:50.470Z,1.48
2019-01-26T07:15:19.584Z,1.57
2019-01-26T07:17:48.040Z,1.56
2019-01-26T07:20:18.160Z,1.46
2019-01-26T07:22:46.704Z,1.51
2019-01-26T07:25:15.310Z,1.61
2019-01-26T07:27:43.707Z,1.64
2019-01-26T07:30:15.381Z,1.64
2019-01-26T07:32:43.769Z,1.68
2019-01-26T07:35:12.265Z,1.65
2019-01-26T07:37:40.739Z,1.65
2019-01-26T07:40:12.306Z,1.68
2019-01-26T07:42:40.817Z,1.81
2019-01-26T07:47:52.472Z,1.82
2019-01-26T07:50:25.832Z,1.81
2019-01-26T07:52:54.350Z,1.82
2019-01-26T07:55:22.919Z,1.77
2019-01-26T07:57:51.392Z,1.79
2019-01-26T08:00:23.068Z,1.80
2019-01-26T08:02:51.525Z,1.75
2019-01-26T08:05:20.417Z,1.73
2019-01-26T08:07:48.902Z,1.74
2019-01-26T08:10:19.765Z,1.73
2019-01-26T08:12:48.789Z,1.69
2019-01-26T08:15:19.962Z,1.79
2019-01-26T08:17:48.486Z,1.77
2019-01-26T08:20:19.180Z,1.79
2019-01-26T08:22:47.710Z,1.73
2019-01-26T08:25:16.280Z,1.75
2019-01-26T08:27:44.764Z,1.82
2019-01-26T08:30:16.507Z,1.84
2019-01-26T08:32:45.014Z,1.77
2019-01-26T08:35:13.476Z,1.82
2019-01-26T08:37:41.904Z,1.78
2019-01-26T08:40:13.141Z,1.78
2019-01-26T08:42:41.584Z,1.74
2019-01-26T08:45:12.220Z,1.77
2019-01-26T08:47:40.667Z,1.82
2019-01-26T08:50:12.240Z,1.83
2019-01-26T08:52:40.743Z,1.91
2019-01-26T08:55:17.852Z,1.90
2019-01-26T08:57:41.217Z,1.92
2019-01-26T09:00:18.838Z,1.92
2019-01-26T09:02:56.163Z,1.89
2019-01-26T09:05:29.493Z,1.94
2019-01-26T09:07:57.924Z,1.93
2019-01-26T09:10:26.387Z,1.93
2019-01-26T09:12:54.813Z,1.99
2019-01-26T09:15:24.153Z,1.94
2019-01-26T09:17:52.638Z,1.89
2019-01-26T09:20:21.113Z,1.91
2019-01-26T09:22:49.562Z,1.99
2019-01-26T09:25:18.116Z,2.06
2019-01-26T09:27:47.024Z,2.02
2019-01-26T09:30:20.404Z,2.05
2019-01-26T09:32:48.898Z,2.07
2019-01-26T09:35:17.371Z,2.10
2019-01-26T09:37:46.576Z,2.15
2019-01-26T09:40:20.942Z,2.10
2019-01-26T09:42:49.615Z,2.19
2019-01-26T09:45:20.505Z,2.18
2019-01-26T09:47:49.480Z,2.18
2019-01-26T09:50:19.729Z,2.24
2019-01-26T09:52:48.315Z,2.29
2019-01-26T09:55:18.816Z,2.26
2019-01-26T09:57:47.624Z,2.32
2019-01-26T10:00:24.412Z,2.34
2019-01-26T10:02:52.862Z,2.32
2019-01-26T10:05:21.392Z,2.37
2019-01-26T10:07:50.247Z,2.31
2019-01-26T10:10:19.855Z,2.38
2019-01-26T10:12:48.307Z,2.33
2019-01-26T10:18:07.665Z,2.50
2019-01-26T10:20:42.152Z,2.41
2019-01-26T10:23:10.862Z,2.50
2019-01-26T10:25:39.385Z,2.61
2019-01-26T10:28:07.808Z,2.50
2019-01-26T10:30:40.882Z,2.47
2019-01-26T10:33:09.374Z,2.57
2019-01-26T10:35:39.452Z,2.55
2019-01-26T10:38:07.978Z,2.46
2019-01-26T10:40:43.906Z,2.59
2019-01-26T10:43:14.005Z,2.52
2019-01-26T10:45:42.509Z,2.54
2019-01-26T10:48:10.972Z,2.61
2019-01-26T10:50:39.401Z,2.56
2019-01-26T10:53:07.792Z,2.59
2019-01-26T10:55:36.240Z,2.66
2019-01-26T10:58:04.882Z,2.88
2019-01-26T11:00:33.398Z,2.81
2019-01-26T11:03:01.861Z,2.74
2019-01-26T11:05:30.288Z,2.73
2019-01-26T11:07:58.684Z,2.85
2019-01-26T11:10:27.113Z,2.80
2019-01-26T11:12:55.543Z,2.92
2019-01-26T11:15:23.987Z,2.94
2019-01-26T11:17:52.512Z,3.09
2019-01-26T11:20:20.950Z,2.99
2019-01-26T11:22:49.488Z,3.03
2019-01-26T11:25:17.983Z,3.03
2019-01-26T11:27:46.500Z,3.11
2019-01-26T11:30:17.370Z,3.12
2019-01-26T11:32:45.902Z,3.16
2019-01-26T11:35:16.329Z,3.16
2019-01-26T11:37:44.870Z,3.18
2019-01-26T11:40:15.114Z,3.22
2019-01-26T11:42:43.645Z,3.20
2019-01-26T11:45:15.819Z,3.25
2019-01-26T11:47:44.327Z,3.26
2019-01-26T11:50:19.267Z,3.22
2019-01-26T11:52:47.776Z,3.28
2019-01-26T11:55:17.865Z,3.28
2019-01-26T11:57:46.278Z,3.25
2019-01-26T12:00:24.218Z,3.23
2019-01-26T12:02:54.286Z,3.23
2019-01-26T12:05:24.418Z,3.25
2019-01-26T12:07:52.923Z,3.30
2019-01-26T12:10:21.389Z,3.34
2019-01-26T12:12:50.663Z,3.37
2019-01-26T12:15:19.598Z,3.43
2019-01-26T12:17:47.960Z,3.38
2019-01-26T12:20:18.325Z,3.48
2019-01-26T12:22:46.769Z,3.56
2019-01-26T12:25:15.248Z,3.57
2019-01-26T12:27:43.612Z,3.60
2019-01-26T12:30:14.452Z,3.76
2019-01-26T12:32:42.822Z,3.62
2019-01-26T12:35:13.797Z,3.70
2019-01-26T12:37:42.296Z,3.62
2019-01-26T12:40:13.170Z,3.70
2019-01-26T12:42:41.797Z,3.72
2019-01-26T12:45:16.689Z,3.69
2019-01-26T12:47:45.423Z,3.59
2019-01-26T12:50:19.670Z,3.66
2019-01-26T12:52:48.693Z,3.69
2019-01-26T12:55:18.987Z,3.72
2019-01-26T12:57:47.426Z,3.61
2019-01-26T13:00:23.628Z,3.58
2019-01-26T13:02:52.059Z,3.83
2019-01-26T13:05:20.522Z,3.84
2019-01-26T13:07:49.288Z,4.00
2019-01-26T13:10:24.231Z,3.90
2019-01-26T13:12:53.421Z,3.87
2019-01-26T13:15:21.976Z,3.83
2019-01-26T13:17:50.576Z,3.83
2019-01-26T13:20:19.342Z,3.84
2019-01-26T13:22:47.995Z,3.83
2019-01-26T13:25:18.835Z,3.87
2019-01-26T13:27:47.711Z,3.88
2019-01-26T13:30:23.013Z,3.91
2019-01-26T13:32:51.691Z,3.91
2019-01-26T13:35:20.177Z,3.88
2019-01-26T13:37:48.693Z,3.95
2019-01-26T13:40:29.041Z,4.00
2019-01-26T13:42:57.494Z,4.08
2019-01-26T13:45:31.938Z,4.07
2019-01-26T13:48:01.201Z,4.10
2019-01-26T13:50:29.950Z,4.16
2019-01-26T13:53:01.361Z,4.21
2019-01-26T13:55:30.012Z,4.17
2019-01-26T13:58:00.255Z,4.20
2019-01-26T14:00:38.213Z,4.21
2019-01-26T14:03:07.233Z,4.23
2019-01-26T14:05:36.895Z,4.23
2019-01-26T14:08:12.466Z,4.28
2019-01-26T14:10:41.305Z,4.32
2019-01-26T14:13:09.761Z,4.29
2019-01-26T14:15:38.541Z,4.35
2019-01-26T14:18:07.222Z,4.32
2019-01-26T14:20:35.787Z,4.32
2019-01-26T14:23:04.495Z,4.31
2019-01-26T14:25:33.203Z,4.27
2019-01-26T14:28:03.874Z,4.29
2019-01-26T14:30:45.838Z,4.29
2019-01-26T14:33:14.488Z,4.34
2019-01-26T14:35:44.562Z,4.37
2019-01-26T14:38:16.031Z,4.26
2019-01-26T14:40:45.067Z,4.31
2019-01-26T14:43:18.211Z,4.36
2019-01-26T14:45:47.237Z,4.33
2019-01-26T14:48:15.828Z,4.35
2019-01-26T14:50:44.545Z,4.30
2019-01-26T14:53:13.382Z,4.37
2019-01-26T14:55:42.328Z,4.33
2019-01-26T14:58:11.662Z,4.35
2019-01-26T15:00:40.339Z,4.37
2019-01-26T15:03:09.308Z,4.42
2019-01-26T15:05:41.111Z,4.49
2019-01-26T15:08:09.824Z,4.46
2019-01-26T15:10:38.686Z,4.50
2019-01-26T15:13:08.938Z,4.47
2019-01-26T15:15:39.238Z,4.49
2019-01-26T15:18:07.811Z,4.53
2019-01-26T15:20:38.929Z,4.53
2019-01-26T15:23:08.597Z,4.54
2019-01-26T15:25:37.357Z,4.46
2019-01-26T15:28:06.383Z,4.49
2019-01-26T15:30:39.727Z,4.56
2019-01-26T15:33:08.497Z,4.54
2019-01-26T15:35:37.028Z,4.54
2019-01-26T15:38:06.166Z,4.48
2019-01-26T15:40:34.555Z,4.55
2019-01-26T15:43:02.979Z,4.51
2019-01-26T15:45:37.534Z,4.50
2019-01-26T15:48:07.118Z,4.55
2019-01-26T15:50:35.656Z,4.54
2019-01-26T15:53:04.636Z,4.58
2019-01-26T15:55:33.186Z,4.57
2019-01-26T15:58:01.761Z,4.60
2019-01-26T16:00:35.478Z,4.64
2019-01-26T16:03:05.558Z,4.61
2019-01-26T16:05:37.005Z,4.68
2019-01-26T16:08:06.529Z,4.57
2019-01-26T16:10:34.989Z,4.61
2019-01-26T16:13:03.506Z,4.61
2019-01-26T16:15:34.338Z,4.56
2019-01-26T16:18:02.963Z,4.58
2019-01-26T16:20:31.457Z,4.55
2019-01-26T16:22:59.955Z,4.50
2019-01-26T16:25:30.439Z,4.54
2019-01-26T16:27:58.946Z,4.56
2019-01-26T16:30:29.767Z,4.55
2019-01-26T16:32:58.267Z,4.55
2019-01-26T16:35:26.734Z,4.50
2019-01-26T16:37:55.082Z,4.51
2019-01-26T16:40:32.035Z,4.52
2019-01-26T16:43:00.535Z,4.46
2019-01-26T16:45:37.778Z,4.41
2019-01-26T16:48:08.433Z,4.40
2019-01-26T16:50:37.169Z,4.39
2019-01-26T16:53:05.773Z,4.41
2019-01-26T16:55:34.168Z,4.37
2019-01-26T16:58:02.641Z,4.35
2019-01-26T17:00:34.228Z,4.33
2019-01-26T17:03:02.711Z,4.33
2019-01-26T17:05:31.202Z,4.28
2019-01-26T17:08:00.520Z,4.25
2019-01-26T17:10:34.137Z,4.22
2019-01-26T17:12:59.360Z,4.26
2019-01-26T17:15:27.877Z,4.22
2019-01-26T17:17:56.341Z,4.21
2019-01-26T17:20:34.910Z,4.15
2019-01-26T17:23:03.218Z,4.11
2019-01-26T17:25:31.667Z,4.11
2019-01-26T17:28:00.814Z,4.07
2019-01-26T17:30:32.437Z,4.10
2019-01-26T17:33:06.919Z,4.12
2019-01-26T17:35:31.090Z,4.12
2019-01-26T17:37:59.579Z,4.00
2019-01-26T17:40:28.027Z,4.07
2019-01-26T17:42:56.453Z,4.05
2019-01-26T17:45:25.069Z,4.12
2019-01-26T17:47:54.130Z,4.05
2019-01-26T17:50:24.629Z,4.04
2019-01-26T17:52:53.169Z,4.01
2019-01-26T17:55:22.077Z,4.00
2019-01-26T17:57:50.875Z,4.02
2019-01-26T18:00:33.049Z,4.04
2019-01-26T18:03:01.659Z,3.97
2019-01-26T18:05:30.085Z,3.96
2019-01-26T18:07:58.654Z,3.97
2019-01-26T18:10:27.652Z,3.94
2019-01-26T18:12:57.193Z,3.97
2019-01-26T18:15:25.785Z,3.93
2019-01-26T18:17:54.365Z,3.94
2019-01-26T18:20:26.224Z,3.91
2019-01-26T18:22:54.980Z,3.86
2019-01-26T18:25:25.529Z,3.83
2019-01-26T18:27:54.122Z,3.85
2019-01-26T18:30:30.614Z,3.83
2019-01-26T18:32:59.321Z,3.85
2019-01-26T18:35:29.040Z,3.82
2019-01-26T18:37:57.566Z,3.78
2019-01-26T18:40:27.482Z,3.80
2019-01-26T18:42:56.069Z,3.81
2019-01-26T18:45:30.704Z,3.82
2019-01-26T18:47:59.151Z,3.80
2019-01-26T18:50:30.080Z,3.73
2019-01-26T18:52:58.638Z,3.74
2019-01-26T18:55:27.147Z,3.66
2019-01-26T18:57:55.586Z,3.66
2019-01-26T19:00:26.907Z,3.63
2019-01-26T19:03:01.672Z,3.61
2019-01-26T19:05:34.657Z,3.54
2019-01-26T19:08:03.455Z,3.55
2019-01-26T19:10:32.007Z,3.55
2019-01-26T19:13:00.519Z,3.60
2019-01-26T19:15:29.132Z,3.54
2019-01-26T19:17:57.641Z,3.55
2019-01-26T19:20:26.387Z,3.50
2019-01-26T19:22:54.909Z,3.50
2019-01-26T19:25:24.229Z,3.56
2019-01-26T19:27:52.907Z,3.52
2019-01-26T19:30:24.686Z,3.47
2019-01-26T19:32:55.552Z,3.42
2019-01-26T19:35:29.271Z,3.46
2019-01-26T19:37:57.781Z,3.50
2019-01-26T19:40:27.806Z,3.48
2019-01-26T19:42:56.331Z,3.47
2019-01-26T19:45:25.264Z,3.44
2019-01-26T19:47:54.437Z,3.45
2019-01-26T19:50:24.741Z,3.47
2019-01-26T19:52:53.791Z,3.50
2019-01-26T19:55:24.335Z,3.55
2019-01-26T19:57:53.227Z,3.46
2019-01-26T20:00:23.040Z,3.50
2019-01-26T20:02:51.586Z,3.49
2019-01-26T20:05:25.236Z,3.48
2019-01-26T20:07:54.020Z,3.51
2019-01-26T20:10:22.916Z,3.50
2019-01-26T20:12:51.534Z,3.54
2019-01-26T20:15:24.612Z,3.52
2019-01-26T20:17:53.124Z,3.49
2019-01-26T20:20:24.605Z,3.48
2019-01-26T20:22:53.354Z,3.45
2019-01-26T20:25:24.466Z,3.52
2019-01-26T20:27:52.997Z,3.51
2019-01-26T20:30:33.500Z,3.53
2019-01-26T20:33:02.366Z,3.53
2019-01-26T20:35:31.727Z,3.54
2019-01-26T20:38:00.255Z,3.58
2019-01-26T20:40:29.461Z,3.61
2019-01-26T20:42:58.390Z,3.62
2019-01-26T20:45:30.430Z,3.57
2019-01-26T20:48:01.597Z,3.69
2019-01-26T20:50:31.500Z,3.67
2019-01-26T20:52:59.935Z,3.66
2019-01-26T20:55:28.962Z,3.69
2019-01-26T20:57:57.619Z,3.66
2019-01-26T21:00:28.555Z,3.72
2019-01-26T21:02:57.784Z,3.74
2019-01-26T21:05:26.637Z,3.71
2019-01-26T21:07:57.840Z,3.76
2019-01-26T21:13:24.739Z,3.78
2019-01-26T21:15:55.949Z,3.78
2019-01-26T21:18:25.162Z,3.80
2019-01-26T21:20:53.518Z,4.28
2019-01-26T21:23:24.078Z,4.42
2019-01-26T21:25:52.761Z,4.41
2019-01-26T21:28:21.303Z,3.92
2019-01-26T21:30:49.908Z,3.89
2019-01-26T21:33:18.606Z,3.91
2019-01-26T21:35:46.987Z,3.93
2019-01-26T21:38:15.438Z,3.87
2019-01-26T21:40:44.192Z,3.91
2019-01-26T21:43:13.145Z,3.94
2019-01-26T21:45:43.015Z,4.09
2019-01-26T21:48:12.244Z,4.10
2019-01-26T21:50:43.019Z,4.14
2019-01-26T21:53:13.666Z,3.98
2019-01-26T21:55:42.624Z,4.02
2019-01-26T21:58:15.826Z,3.88
2019-01-26T22:00:44.523Z,3.93
2019-01-26T22:03:14.502Z,3.97
2019-01-26T22:05:43.992Z,3.96
2019-01-26T22:08:12.950Z,3.94
2019-01-26T22:10:41.738Z,4.01
2019-01-26T22:13:10.710Z,3.97
2019-01-26T22:15:39.823Z,3.95
2019-01-26T22:18:09.386Z,3.99
2019-01-26T22:20:38.484Z,4.01
2019-01-26T22:23:07.286Z,4.04
2019-01-26T22:25:35.958Z,4.05
2019-01-26T22:28:04.533Z,4.09
2019-01-26T22:30:35.205Z,4.07
2019-01-26T22:33:09.040Z,4.04
2019-01-26T22:35:38.902Z,4.07
2019-01-26T22:38:10.519Z,4.07
2019-01-26T22:40:39.834Z,4.09
2019-01-26T22:43:09.541Z,4.05
2019-01-26T22:45:38.620Z,4.01
2019-01-26T22:48:09.264Z,4.09
2019-01-26T22:50:38.630Z,4.07
2019-01-26T22:53:07.290Z,4.10
2019-01-26T22:55:38.513Z,4.15
2019-01-26T22:58:07.749Z,4.09
2019-01-26T23:00:41.706Z,4.12
2019-01-26T23:03:23.561Z,4.17
2019-01-26T23:06:21.842Z,4.19
2019-01-26T23:08:55.809Z,4.27
2019-01-26T23:11:47.551Z,4.21
2019-01-26T23:14:48.202Z,4.24
2019-01-26T23:17:40.960Z,4.25
2019-01-26T23:20:12.826Z,4.27
2019-01-26T23:22:47.452Z,4.26
2019-01-26T23:25:27.866Z,4.23
2019-01-26T23:28:14.715Z,4.28
2019-01-26T23:30:57.814Z,4.24
2019-01-26T23:33:26.429Z,4.37
2019-01-26T23:35:55.128Z,4.37
2019-01-26T23:38:23.630Z,4.40
2019-01-26T23:40:52.357Z,4.38
2019-01-26T23:43:20.940Z,4.58
2019-01-26T23:45:49.868Z,4.43
2019-01-26T23:48:18.504Z,4.47
2019-01-26T23:50:47.200Z,4.41
2019-01-26T23:53:15.710Z,4.41
2019-01-26T23:55:44.253Z,4.51
2019-01-26T23:58:13.068Z,4.49
